sensor_id;sensor_type;location;lat;lon;timestamp;P1;durP1;ratioP1;P2;durP2;ratioP2
27666;SDS011;15074;50.940;5.282;2023-11-19T00:00:29;3.38;;;2.40;;
27666;SDS011;15074;50.940;5.282;2023-11-19T00:02:55;2.75;;;1.95;;
27666;SDS011;15074;50.940;5.282;2023-11-19T00:05:20;2.38;;;2.08;;
27666;SDS011;15074;50.940;5.282;2023-11-19T00:07:46;3.13;;;2.38;;
27666;SDS011;15074;50.940;5.282;2023-11-19T00:10:13;2.10;;;1.90;;
27666;SDS011;15074;50.940;5.282;2023-11-19T00:12:41;2.47;;;1.92;;
27666;SDS011;15074;50.940;5.282;2023-11-19T00:15:09;2.17;;;1.83;;
27666;SDS011;15074;50.940;5.282;2023-11-19T00:17:38;2.47;;;2.15;;
27666;SDS011;15074;50.940;5.282;2023-11-19T00:20:11;2.70;;;2.45;;
27666;SDS011;15074;50.940;5.282;2023-11-19T00:22:37;4.07;;;2.50;;
27666;SDS011;15074;50.940;5.282;2023-11-19T00:25:03;6.70;;;3.38;;
27666;SDS011;15074;50.940;5.282;2023-11-19T00:27:30;3.40;;;3.10;;
27666;SDS011;15074;50.940;5.282;2023-11-19T00:29:56;3.05;;;2.72;;
27666;SDS011;15074;50.940;5.282;2023-11-19T00:32:22;3.72;;;3.42;;
27666;SDS011;15074;50.940;5.282;2023-11-19T00:34:48;4.03;;;3.67;;
27666;SDS011;15074;50.940;5.282;2023-11-19T00:37:14;5.88;;;4.38;;
27666;SDS011;15074;50.940;5.282;2023-11-19T00:39:42;6.85;;;5.20;;
27666;SDS011;15074;50.940;5.282;2023-11-19T00:42:11;6.38;;;4.75;;
27666;SDS011;15074;50.940;5.282;2023-11-19T00:44:37;5.38;;;4.88;;
27666;SDS011;15074;50.940;5.282;2023-11-19T00:47:03;5.80;;;4.45;;
27666;SDS011;15074;50.940;5.282;2023-11-19T00:49:30;6.83;;;5.10;;
27666;SDS011;15074;50.940;5.282;2023-11-19T00:51:57;6.35;;;5.70;;
27666;SDS011;15074;50.940;5.282;2023-11-19T00:54:24;6.18;;;5.55;;
27666;SDS011;15074;50.940;5.282;2023-11-19T00:56:51;11.07;;;5.63;;
27666;SDS011;15074;50.940;5.282;2023-11-19T00:59:17;6.25;;;5.55;;
27666;SDS011;15074;50.940;5.282;2023-11-19T01:01:43;7.90;;;6.93;;
27666;SDS011;15074;50.940;5.282;2023-11-19T01:04:09;7.95;;;6.38;;
27666;SDS011;15074;50.940;5.282;2023-11-19T01:06:34;8.40;;;5.60;;
27666;SDS011;15074;50.940;5.282;2023-11-19T01:09:00;9.00;;;5.65;;
27666;SDS011;15074;50.940;5.282;2023-11-19T01:11:26;7.43;;;5.90;;
27666;SDS011;15074;50.940;5.282;2023-11-19T01:13:52;14.75;;;5.68;;
27666;SDS011;15074;50.940;5.282;2023-11-19T01:16:18;5.47;;;4.65;;
27666;SDS011;15074;50.940;5.282;2023-11-19T01:18:47;7.53;;;4.82;;
27666;SDS011;15074;50.940;5.282;2023-11-19T01:21:13;5.78;;;4.22;;
27666;SDS011;15074;50.940;5.282;2023-11-19T01:23:42;5.50;;;3.75;;
27666;SDS011;15074;50.940;5.282;2023-11-19T01:26:09;8.27;;;4.90;;
27666;SDS011;15074;50.940;5.282;2023-11-19T01:28:41;5.53;;;3.63;;
27666;SDS011;15074;50.940;5.282;2023-11-19T01:31:10;8.95;;;3.47;;
27666;SDS011;15074;50.940;5.282;2023-11-19T01:33:37;13.07;;;4.03;;
27666;SDS011;15074;50.940;5.282;2023-11-19T01:36:05;5.37;;;2.67;;
27666;SDS011;15074;50.940;5.282;2023-11-19T01:38:30;8.60;;;3.55;;
27666;SDS011;15074;50.940;5.282;2023-11-19T01:40:56;8.43;;;3.75;;
27666;SDS011;15074;50.940;5.282;2023-11-19T01:43:35;9.48;;;3.75;;
27666;SDS011;15074;50.940;5.282;2023-11-19T01:46:02;8.23;;;4.10;;
27666;SDS011;15074;50.940;5.282;2023-11-19T01:48:29;13.18;;;3.67;;
27666;SDS011;15074;50.940;5.282;2023-11-19T01:50:56;12.43;;;3.50;;
27666;SDS011;15074;50.940;5.282;2023-11-19T01:53:22;6.18;;;2.55;;
27666;SDS011;15074;50.940;5.282;2023-11-19T01:55:48;9.32;;;3.20;;
27666;SDS011;15074;50.940;5.282;2023-11-19T01:58:15;8.40;;;2.70;;
27666;SDS011;15074;50.940;5.282;2023-11-19T02:00:41;7.60;;;2.88;;
27666;SDS011;15074;50.940;5.282;2023-11-19T02:03:09;5.90;;;2.50;;
27666;SDS011;15074;50.940;5.282;2023-11-19T02:05:35;10.35;;;3.28;;
27666;SDS011;15074;50.940;5.282;2023-11-19T02:08:01;14.85;;;2.88;;
27666;SDS011;15074;50.940;5.282;2023-11-19T02:10:28;12.90;;;2.33;;
27666;SDS011;15074;50.940;5.282;2023-11-19T02:12:53;8.73;;;2.60;;
27666;SDS011;15074;50.940;5.282;2023-11-19T02:15:20;15.73;;;2.20;;
27666;SDS011;15074;50.940;5.282;2023-11-19T02:17:49;11.27;;;2.30;;
27666;SDS011;15074;50.940;5.282;2023-11-19T02:20:15;10.05;;;2.42;;
27666;SDS011;15074;50.940;5.282;2023-11-19T02:22:41;7.68;;;2.80;;
27666;SDS011;15074;50.940;5.282;2023-11-19T02:25:07;10.93;;;3.13;;
27666;SDS011;15074;50.940;5.282;2023-11-19T02:30:16;11.90;;;3.50;;
27666;SDS011;15074;50.940;5.282;2023-11-19T02:32:42;9.82;;;3.05;;
27666;SDS011;15074;50.940;5.282;2023-11-19T02:35:08;15.57;;;4.00;;
27666;SDS011;15074;50.940;5.282;2023-11-19T02:37:37;8.18;;;2.72;;
27666;SDS011;15074;50.940;5.282;2023-11-19T02:40:04;8.25;;;2.60;;
27666;SDS011;15074;50.940;5.282;2023-11-19T02:42:30;10.60;;;3.90;;
27666;SDS011;15074;50.940;5.282;2023-11-19T02:44:56;10.90;;;3.47;;
27666;SDS011;15074;50.940;5.282;2023-11-19T02:47:22;11.43;;;2.85;;
27666;SDS011;15074;50.940;5.282;2023-11-19T02:49:49;8.93;;;3.15;;
27666;SDS011;15074;50.940;5.282;2023-11-19T02:52:15;7.72;;;2.78;;
27666;SDS011;15074;50.940;5.282;2023-11-19T02:54:41;16.38;;;3.67;;
27666;SDS011;15074;50.940;5.282;2023-11-19T02:57:08;12.40;;;3.25;;
27666;SDS011;15074;50.940;5.282;2023-11-19T02:59:36;10.88;;;3.13;;
27666;SDS011;15074;50.940;5.282;2023-11-19T03:02:08;17.98;;;2.70;;
27666;SDS011;15074;50.940;5.282;2023-11-19T03:04:37;14.68;;;4.07;;
27666;SDS011;15074;50.940;5.282;2023-11-19T03:07:07;14.48;;;2.75;;
27666;SDS011;15074;50.940;5.282;2023-11-19T03:09:33;11.23;;;3.50;;
27666;SDS011;15074;50.940;5.282;2023-11-19T03:12:00;8.77;;;3.35;;
27666;SDS011;15074;50.940;5.282;2023-11-19T03:14:26;14.88;;;2.78;;
27666;SDS011;15074;50.940;5.282;2023-11-19T03:16:51;9.30;;;2.80;;
27666;SDS011;15074;50.940;5.282;2023-11-19T03:19:17;17.15;;;4.13;;
27666;SDS011;15074;50.940;5.282;2023-11-19T03:21:43;14.45;;;3.35;;
27666;SDS011;15074;50.940;5.282;2023-11-19T03:24:09;13.93;;;3.65;;
27666;SDS011;15074;50.940;5.282;2023-11-19T03:26:37;12.63;;;2.63;;
27666;SDS011;15074;50.940;5.282;2023-11-19T03:29:03;14.75;;;3.88;;
27666;SDS011;15074;50.940;5.282;2023-11-19T03:31:29;20.88;;;3.17;;
27666;SDS011;15074;50.940;5.282;2023-11-19T03:33:54;13.07;;;3.13;;
27666;SDS011;15074;50.940;5.282;2023-11-19T03:36:20;16.92;;;3.85;;
27666;SDS011;15074;50.940;5.282;2023-11-19T03:38:45;13.25;;;3.03;;
27666;SDS011;15074;50.940;5.282;2023-11-19T03:41:12;15.20;;;3.33;;
27666;SDS011;15074;50.940;5.282;2023-11-19T03:43:38;10.23;;;3.20;;
27666;SDS011;15074;50.940;5.282;2023-11-19T03:46:05;15.73;;;3.38;;
27666;SDS011;15074;50.940;5.282;2023-11-19T03:48:40;12.05;;;3.33;;
27666;SDS011;15074;50.940;5.282;2023-11-19T03:51:06;11.25;;;3.15;;
27666;SDS011;15074;50.940;5.282;2023-11-19T03:53:32;16.10;;;3.47;;
27666;SDS011;15074;50.940;5.282;2023-11-19T03:55:57;13.40;;;2.50;;
27666;SDS011;15074;50.940;5.282;2023-11-19T03:58:23;8.93;;;2.15;;
27666;SDS011;15074;50.940;5.282;2023-11-19T04:00:49;12.45;;;3.15;;
27666;SDS011;15074;50.940;5.282;2023-11-19T04:03:15;11.48;;;3.50;;
27666;SDS011;15074;50.940;5.282;2023-11-19T04:05:40;11.38;;;2.38;;
27666;SDS011;15074;50.940;5.282;2023-11-19T04:08:06;16.55;;;3.33;;
27666;SDS011;15074;50.940;5.282;2023-11-19T04:10:31;13.93;;;3.47;;
27666;SDS011;15074;50.940;5.282;2023-11-19T04:12:57;13.75;;;3.05;;
27666;SDS011;15074;50.940;5.282;2023-11-19T04:15:23;13.45;;;3.25;;
27666;SDS011;15074;50.940;5.282;2023-11-19T04:17:49;14.38;;;3.95;;
27666;SDS011;15074;50.940;5.282;2023-11-19T04:20:14;15.80;;;3.50;;
27666;SDS011;15074;50.940;5.282;2023-11-19T04:22:40;8.55;;;2.92;;
27666;SDS011;15074;50.940;5.282;2023-11-19T04:25:06;12.75;;;3.08;;
27666;SDS011;15074;50.940;5.282;2023-11-19T04:27:32;15.98;;;3.38;;
27666;SDS011;15074;50.940;5.282;2023-11-19T04:29:57;12.15;;;3.33;;
27666;SDS011;15074;50.940;5.282;2023-11-19T04:32:23;15.50;;;3.45;;
27666;SDS011;15074;50.940;5.282;2023-11-19T04:34:50;16.60;;;3.38;;
27666;SDS011;15074;50.940;5.282;2023-11-19T04:37:16;14.82;;;3.40;;
27666;SDS011;15074;50.940;5.282;2023-11-19T04:39:43;13.77;;;3.20;;
27666;SDS011;15074;50.940;5.282;2023-11-19T04:42:10;13.95;;;3.03;;
27666;SDS011;15074;50.940;5.282;2023-11-19T04:44:35;15.30;;;3.30;;
27666;SDS011;15074;50.940;5.282;2023-11-19T04:47:01;11.18;;;2.85;;
27666;SDS011;15074;50.940;5.282;2023-11-19T04:49:27;17.45;;;3.83;;
27666;SDS011;15074;50.940;5.282;2023-11-19T04:51:52;11.60;;;2.78;;
27666;SDS011;15074;50.940;5.282;2023-11-19T04:54:18;19.73;;;3.65;;
27666;SDS011;15074;50.940;5.282;2023-11-19T04:56:47;18.25;;;3.17;;
27666;SDS011;15074;50.940;5.282;2023-11-19T04:59:13;14.63;;;3.08;;
27666;SDS011;15074;50.940;5.282;2023-11-19T05:01:39;24.02;;;4.72;;
27666;SDS011;15074;50.940;5.282;2023-11-19T05:04:05;16.98;;;3.35;;
27666;SDS011;15074;50.940;5.282;2023-11-19T05:06:32;18.13;;;3.10;;
27666;SDS011;15074;50.940;5.282;2023-11-19T05:08:58;12.82;;;3.33;;
27666;SDS011;15074;50.940;5.282;2023-11-19T05:11:33;22.10;;;3.75;;
27666;SDS011;15074;50.940;5.282;2023-11-19T05:13:59;11.73;;;4.22;;
27666;SDS011;15074;50.940;5.282;2023-11-19T05:16:25;15.30;;;2.83;;
27666;SDS011;15074;50.940;5.282;2023-11-19T05:18:51;15.98;;;2.58;;
27666;SDS011;15074;50.940;5.282;2023-11-19T05:21:17;20.33;;;4.40;;
27666;SDS011;15074;50.940;5.282;2023-11-19T05:23:42;16.42;;;3.58;;
27666;SDS011;15074;50.940;5.282;2023-11-19T05:26:08;15.65;;;3.63;;
27666;SDS011;15074;50.940;5.282;2023-11-19T05:28:36;17.55;;;3.40;;
27666;SDS011;15074;50.940;5.282;2023-11-19T05:31:04;18.63;;;4.13;;
27666;SDS011;15074;50.940;5.282;2023-11-19T05:33:30;22.35;;;3.83;;
27666;SDS011;15074;50.940;5.282;2023-11-19T05:35:56;17.30;;;3.80;;
27666;SDS011;15074;50.940;5.282;2023-11-19T05:38:22;25.30;;;4.40;;
27666;SDS011;15074;50.940;5.282;2023-11-19T05:40:48;20.70;;;3.90;;
27666;SDS011;15074;50.940;5.282;2023-11-19T05:43:14;12.20;;;3.33;;
27666;SDS011;15074;50.940;5.282;2023-11-19T05:45:41;22.15;;;4.10;;
27666;SDS011;15074;50.940;5.282;2023-11-19T05:48:07;24.15;;;4.35;;
27666;SDS011;15074;50.940;5.282;2023-11-19T05:50:34;22.55;;;4.47;;
27666;SDS011;15074;50.940;5.282;2023-11-19T05:53:00;24.85;;;4.10;;
27666;SDS011;15074;50.940;5.282;2023-11-19T05:55:26;21.65;;;3.58;;
27666;SDS011;15074;50.940;5.282;2023-11-19T05:57:53;26.45;;;4.13;;
27666;SDS011;15074;50.940;5.282;2023-11-19T06:00:19;31.98;;;5.00;;
27666;SDS011;15074;50.940;5.282;2023-11-19T06:02:44;11.25;;;2.88;;
27666;SDS011;15074;50.940;5.282;2023-11-19T06:05:10;26.35;;;5.15;;
27666;SDS011;15074;50.940;5.282;2023-11-19T06:07:36;29.05;;;3.72;;
27666;SDS011;15074;50.940;5.282;2023-11-19T06:10:04;14.50;;;3.97;;
27666;SDS011;15074;50.940;5.282;2023-11-19T06:12:31;25.20;;;4.22;;
27666;SDS011;15074;50.940;5.282;2023-11-19T06:14:59;19.38;;;3.72;;
27666;SDS011;15074;50.940;5.282;2023-11-19T06:17:25;20.88;;;3.78;;
27666;SDS011;15074;50.940;5.282;2023-11-19T06:19:50;18.10;;;3.75;;
27666;SDS011;15074;50.940;5.282;2023-11-19T06:22:16;23.85;;;4.00;;
27666;SDS011;15074;50.940;5.282;2023-11-19T06:24:42;25.77;;;3.47;;
27666;SDS011;15074;50.940;5.282;2023-11-19T06:27:07;24.20;;;4.22;;
27666;SDS011;15074;50.940;5.282;2023-11-19T06:29:33;25.20;;;4.90;;
27666;SDS011;15074;50.940;5.282;2023-11-19T06:31:59;23.00;;;3.75;;
27666;SDS011;15074;50.940;5.282;2023-11-19T06:34:25;20.98;;;4.15;;
27666;SDS011;15074;50.940;5.282;2023-11-19T06:36:50;18.45;;;4.43;;
27666;SDS011;15074;50.940;5.282;2023-11-19T06:39:16;22.55;;;3.75;;
27666;SDS011;15074;50.940;5.282;2023-11-19T06:41:46;25.15;;;4.18;;
27666;SDS011;15074;50.940;5.282;2023-11-19T06:44:11;22.50;;;4.90;;
27666;SDS011;15074;50.940;5.282;2023-11-19T06:46:38;22.80;;;3.67;;
27666;SDS011;15074;50.940;5.282;2023-11-19T06:49:03;22.10;;;5.20;;
27666;SDS011;15074;50.940;5.282;2023-11-19T06:51:29;32.10;;;4.25;;
27666;SDS011;15074;50.940;5.282;2023-11-19T06:53:55;22.80;;;4.10;;
27666;SDS011;15074;50.940;5.282;2023-11-19T06:56:20;24.83;;;4.30;;
27666;SDS011;15074;50.940;5.282;2023-11-19T06:58:48;12.23;;;3.17;;
27666;SDS011;15074;50.940;5.282;2023-11-19T07:01:17;14.27;;;2.75;;
27666;SDS011;15074;50.940;5.282;2023-11-19T07:03:46;19.70;;;4.22;;
27666;SDS011;15074;50.940;5.282;2023-11-19T07:06:12;15.65;;;3.97;;
27666;SDS011;15074;50.940;5.282;2023-11-19T07:08:39;13.45;;;4.45;;
27666;SDS011;15074;50.940;5.282;2023-11-19T07:11:06;13.20;;;3.47;;
27666;SDS011;15074;50.940;5.282;2023-11-19T07:13:31;10.43;;;3.47;;
27666;SDS011;15074;50.940;5.282;2023-11-19T07:15:57;17.80;;;4.28;;
27666;SDS011;15074;50.940;5.282;2023-11-19T07:18:23;17.08;;;4.43;;
27666;SDS011;15074;50.940;5.282;2023-11-19T07:20:49;16.17;;;4.35;;
27666;SDS011;15074;50.940;5.282;2023-11-19T07:23:14;17.05;;;4.95;;
27666;SDS011;15074;50.940;5.282;2023-11-19T07:25:42;19.88;;;4.43;;
27666;SDS011;15074;50.940;5.282;2023-11-19T07:28:11;24.33;;;4.13;;
27666;SDS011;15074;50.940;5.282;2023-11-19T07:30:37;19.55;;;4.40;;
27666;SDS011;15074;50.940;5.282;2023-11-19T07:33:03;12.82;;;3.95;;
27666;SDS011;15074;50.940;5.282;2023-11-19T07:35:29;18.30;;;3.78;;
27666;SDS011;15074;50.940;5.282;2023-11-19T07:37:56;25.50;;;5.72;;
27666;SDS011;15074;50.940;5.282;2023-11-19T07:40:22;12.88;;;3.70;;
27666;SDS011;15074;50.940;5.282;2023-11-19T07:42:49;22.02;;;4.45;;
27666;SDS011;15074;50.940;5.282;2023-11-19T07:45:14;18.20;;;4.60;;
27666;SDS011;15074;50.940;5.282;2023-11-19T07:47:41;16.58;;;4.05;;
27666;SDS011;15074;50.940;5.282;2023-11-19T07:50:09;18.25;;;4.20;;
27666;SDS011;15074;50.940;5.282;2023-11-19T07:52:35;17.38;;;4.35;;
27666;SDS011;15074;50.940;5.282;2023-11-19T07:55:00;23.00;;;4.68;;
27666;SDS011;15074;50.940;5.282;2023-11-19T07:57:26;25.02;;;4.25;;
27666;SDS011;15074;50.940;5.282;2023-11-19T07:59:55;22.38;;;4.15;;
27666;SDS011;15074;50.940;5.282;2023-11-19T08:02:21;15.90;;;3.70;;
27666;SDS011;15074;50.940;5.282;2023-11-19T08:04:46;18.55;;;3.80;;
27666;SDS011;15074;50.940;5.282;2023-11-19T08:07:15;11.82;;;3.47;;
27666;SDS011;15074;50.940;5.282;2023-11-19T08:09:41;19.85;;;3.85;;
27666;SDS011;15074;50.940;5.282;2023-11-19T08:12:07;15.02;;;3.15;;
27666;SDS011;15074;50.940;5.282;2023-11-19T08:14:33;21.63;;;3.58;;
27666;SDS011;15074;50.940;5.282;2023-11-19T08:16:59;15.02;;;3.53;;
27666;SDS011;15074;50.940;5.282;2023-11-19T08:19:25;17.02;;;3.92;;
27666;SDS011;15074;50.940;5.282;2023-11-19T08:21:50;18.83;;;2.88;;
27666;SDS011;15074;50.940;5.282;2023-11-19T08:24:16;15.13;;;3.13;;
27666;SDS011;15074;50.940;5.282;2023-11-19T08:26:42;12.57;;;4.05;;
27666;SDS011;15074;50.940;5.282;2023-11-19T08:29:08;19.95;;;4.00;;
27666;SDS011;15074;50.940;5.282;2023-11-19T08:31:34;11.23;;;4.45;;
27666;SDS011;15074;50.940;5.282;2023-11-19T08:34:00;14.13;;;3.55;;
27666;SDS011;15074;50.940;5.282;2023-11-19T08:36:26;13.32;;;3.47;;
27666;SDS011;15074;50.940;5.282;2023-11-19T08:38:53;15.13;;;3.40;;
27666;SDS011;15074;50.940;5.282;2023-11-19T08:41:18;17.98;;;4.53;;
27666;SDS011;15074;50.940;5.282;2023-11-19T08:43:45;16.45;;;3.85;;
27666;SDS011;15074;50.940;5.282;2023-11-19T08:46:11;16.23;;;2.75;;
27666;SDS011;15074;50.940;5.282;2023-11-19T08:48:37;18.83;;;4.65;;
27666;SDS011;15074;50.940;5.282;2023-11-19T08:51:03;16.73;;;4.00;;
27666;SDS011;15074;50.940;5.282;2023-11-19T08:53:29;9.45;;;2.50;;
27666;SDS011;15074;50.940;5.282;2023-11-19T08:55:55;24.88;;;4.55;;
27666;SDS011;15074;50.940;5.282;2023-11-19T08:58:21;14.48;;;3.30;;
27666;SDS011;15074;50.940;5.282;2023-11-19T09:00:46;15.90;;;3.25;;
27666;SDS011;15074;50.940;5.282;2023-11-19T09:03:12;15.82;;;2.92;;
27666;SDS011;15074;50.940;5.282;2023-11-19T09:05:38;15.90;;;3.75;;
27666;SDS011;15074;50.940;5.282;2023-11-19T09:08:04;8.15;;;2.40;;
27666;SDS011;15074;50.940;5.282;2023-11-19T09:10:30;16.63;;;3.60;;
27666;SDS011;15074;50.940;5.282;2023-11-19T09:12:55;16.10;;;3.00;;
27666;SDS011;15074;50.940;5.282;2023-11-19T09:15:21;10.65;;;2.60;;
27666;SDS011;15074;50.940;5.282;2023-11-19T09:17:46;9.30;;;3.50;;
27666;SDS011;15074;50.940;5.282;2023-11-19T09:20:12;8.52;;;2.45;;
27666;SDS011;15074;50.940;5.282;2023-11-19T09:22:40;15.13;;;2.85;;
27666;SDS011;15074;50.940;5.282;2023-11-19T09:25:08;11.07;;;2.55;;
27666;SDS011;15074;50.940;5.282;2023-11-19T09:27:34;13.15;;;3.60;;
27666;SDS011;15074;50.940;5.282;2023-11-19T09:30:00;14.75;;;3.45;;
27666;SDS011;15074;50.940;5.282;2023-11-19T09:32:26;10.13;;;3.10;;
27666;SDS011;15074;50.940;5.282;2023-11-19T09:34:51;13.90;;;3.38;;
27666;SDS011;15074;50.940;5.282;2023-11-19T09:37:17;19.13;;;3.05;;
27666;SDS011;15074;50.940;5.282;2023-11-19T09:39:43;8.88;;;3.13;;
27666;SDS011;15074;50.940;5.282;2023-11-19T09:42:09;19.90;;;3.22;;
27666;SDS011;15074;50.940;5.282;2023-11-19T09:44:35;18.98;;;4.50;;
27666;SDS011;15074;50.940;5.282;2023-11-19T09:47:03;13.65;;;3.25;;
27666;SDS011;15074;50.940;5.282;2023-11-19T09:49:30;9.10;;;2.65;;
27666;SDS011;15074;50.940;5.282;2023-11-19T09:51:56;15.15;;;3.30;;
27666;SDS011;15074;50.940;5.282;2023-11-19T09:54:22;14.68;;;4.05;;
27666;SDS011;15074;50.940;5.282;2023-11-19T09:56:48;13.80;;;3.22;;
27666;SDS011;15074;50.940;5.282;2023-11-19T09:59:15;15.25;;;3.45;;
27666;SDS011;15074;50.940;5.282;2023-11-19T10:01:42;16.75;;;3.22;;
27666;SDS011;15074;50.940;5.282;2023-11-19T10:04:10;20.13;;;3.70;;
27666;SDS011;15074;50.940;5.282;2023-11-19T10:06:40;16.40;;;3.05;;
27666;SDS011;15074;50.940;5.282;2023-11-19T10:09:07;10.70;;;2.70;;
27666;SDS011;15074;50.940;5.282;2023-11-19T10:11:32;9.80;;;2.38;;
27666;SDS011;15074;50.940;5.282;2023-11-19T10:13:59;14.57;;;2.88;;
27666;SDS011;15074;50.940;5.282;2023-11-19T10:16:28;9.82;;;2.28;;
27666;SDS011;15074;50.940;5.282;2023-11-19T10:18:56;7.20;;;2.58;;
27666;SDS011;15074;50.940;5.282;2023-11-19T10:21:21;11.02;;;3.22;;
27666;SDS011;15074;50.940;5.282;2023-11-19T10:23:55;11.85;;;1.98;;
27666;SDS011;15074;50.940;5.282;2023-11-19T10:26:25;7.95;;;2.70;;
27666;SDS011;15074;50.940;5.282;2023-11-19T10:28:52;10.13;;;2.67;;
27666;SDS011;15074;50.940;5.282;2023-11-19T10:31:18;11.63;;;2.55;;
27666;SDS011;15074;50.940;5.282;2023-11-19T10:33:49;12.15;;;2.30;;
27666;SDS011;15074;50.940;5.282;2023-11-19T10:36:15;12.73;;;2.47;;
27666;SDS011;15074;50.940;5.282;2023-11-19T10:38:51;9.88;;;2.20;;
27666;SDS011;15074;50.940;5.282;2023-11-19T10:41:53;9.70;;;2.35;;
27666;SDS011;15074;50.940;5.282;2023-11-19T10:44:12;10.88;;;2.90;;
27666;SDS011;15074;50.940;5.282;2023-11-19T10:46:55;7.10;;;2.10;;
27666;SDS011;15074;50.940;5.282;2023-11-19T10:49:21;11.05;;;2.53;;
27666;SDS011;15074;50.940;5.282;2023-11-19T10:51:46;7.97;;;2.30;;
27666;SDS011;15074;50.940;5.282;2023-11-19T10:54:14;11.23;;;2.38;;
27666;SDS011;15074;50.940;5.282;2023-11-19T10:56:43;11.48;;;2.60;;
27666;SDS011;15074;50.940;5.282;2023-11-19T10:59:12;12.15;;;3.03;;
27666;SDS011;15074;50.940;5.282;2023-11-19T11:01:39;13.27;;;3.35;;
27666;SDS011;15074;50.940;5.282;2023-11-19T11:04:24;11.65;;;2.22;;
27666;SDS011;15074;50.940;5.282;2023-11-19T11:06:54;9.80;;;2.47;;
27666;SDS011;15074;50.940;5.282;2023-11-19T11:09:21;14.10;;;4.15;;
27666;SDS011;15074;50.940;5.282;2023-11-19T11:11:48;16.27;;;5.07;;
27666;SDS011;15074;50.940;5.282;2023-11-19T11:14:17;12.77;;;3.13;;
27666;SDS011;15074;50.940;5.282;2023-11-19T11:19:11;14.43;;;2.65;;
27666;SDS011;15074;50.940;5.282;2023-11-19T11:21:38;15.15;;;5.03;;
27666;SDS011;15074;50.940;5.282;2023-11-19T11:29:14;13.23;;;3.40;;
27666;SDS011;15074;50.940;5.282;2023-11-19T11:37:49;14.85;;;2.42;;
27666;SDS011;15074;50.940;5.282;2023-11-19T11:40:18;13.00;;;3.22;;
27666;SDS011;15074;50.940;5.282;2023-11-19T11:42:44;18.35;;;3.10;;
27666;SDS011;15074;50.940;5.282;2023-11-19T11:45:10;13.43;;;2.88;;
27666;SDS011;15074;50.940;5.282;2023-11-19T11:50:11;9.00;;;2.90;;
27666;SDS011;15074;50.940;5.282;2023-11-19T11:55:28;10.10;;;2.90;;
27666;SDS011;15074;50.940;5.282;2023-11-19T11:57:57;12.68;;;2.78;;
27666;SDS011;15074;50.940;5.282;2023-11-19T12:02:51;21.25;;;3.28;;
27666;SDS011;15074;50.940;5.282;2023-11-19T12:05:19;16.30;;;3.13;;
27666;SDS011;15074;50.940;5.282;2023-11-19T12:07:54;13.02;;;3.58;;
27666;SDS011;15074;50.940;5.282;2023-11-19T12:10:20;12.30;;;2.20;;
27666;SDS011;15074;50.940;5.282;2023-11-19T12:12:47;15.65;;;3.63;;
27666;SDS011;15074;50.940;5.282;2023-11-19T12:15:12;29.85;;;4.85;;
27666;SDS011;15074;50.940;5.282;2023-11-19T12:20:14;9.68;;;2.67;;
27666;SDS011;15074;50.940;5.282;2023-11-19T12:22:42;9.98;;;2.80;;
27666;SDS011;15074;50.940;5.282;2023-11-19T12:25:10;11.88;;;2.92;;
27666;SDS011;15074;50.940;5.282;2023-11-19T12:27:37;12.80;;;2.90;;
27666;SDS011;15074;50.940;5.282;2023-11-19T12:30:06;14.07;;;3.30;;
27666;SDS011;15074;50.940;5.282;2023-11-19T12:32:41;15.10;;;3.47;;
27666;SDS011;15074;50.940;5.282;2023-11-19T12:35:08;8.23;;;3.35;;
27666;SDS011;15074;50.940;5.282;2023-11-19T12:37:42;7.43;;;3.17;;
27666;SDS011;15074;50.940;5.282;2023-11-19T12:42:48;11.48;;;2.55;;
27666;SDS011;15074;50.940;5.282;2023-11-19T12:45:15;14.15;;;2.58;;
27666;SDS011;15074;50.940;5.282;2023-11-19T12:47:42;24.48;;;3.40;;
27666;SDS011;15074;50.940;5.282;2023-11-19T12:50:08;8.27;;;2.95;;
27666;SDS011;15074;50.940;5.282;2023-11-19T12:52:35;9.07;;;2.78;;
27666;SDS011;15074;50.940;5.282;2023-11-19T12:55:02;7.93;;;2.30;;
27666;SDS011;15074;50.940;5.282;2023-11-19T13:00:04;9.00;;;2.30;;
27666;SDS011;15074;50.940;5.282;2023-11-19T13:02:44;16.88;;;3.00;;
27666;SDS011;15074;50.940;5.282;2023-11-19T13:05:27;8.05;;;2.47;;
27666;SDS011;15074;50.940;5.282;2023-11-19T13:08:07;9.05;;;2.13;;
27666;SDS011;15074;50.940;5.282;2023-11-19T13:10:50;5.00;;;1.70;;
27666;SDS011;15074;50.940;5.282;2023-11-19T13:13:18;6.43;;;2.22;;
27666;SDS011;15074;50.940;5.282;2023-11-19T13:15:44;7.38;;;1.90;;
27666;SDS011;15074;50.940;5.282;2023-11-19T13:18:10;8.52;;;2.25;;
27666;SDS011;15074;50.940;5.282;2023-11-19T13:20:37;7.22;;;2.10;;
27666;SDS011;15074;50.940;5.282;2023-11-19T13:23:04;8.20;;;2.72;;
27666;SDS011;15074;50.940;5.282;2023-11-19T13:25:30;9.40;;;2.65;;
27666;SDS011;15074;50.940;5.282;2023-11-19T13:27:57;18.45;;;3.88;;
27666;SDS011;15074;50.940;5.282;2023-11-19T13:30:23;9.63;;;2.47;;
27666;SDS011;15074;50.940;5.282;2023-11-19T13:32:50;15.93;;;3.00;;
27666;SDS011;15074;50.940;5.282;2023-11-19T13:35:17;7.50;;;2.35;;
27666;SDS011;15074;50.940;5.282;2023-11-19T13:37:43;7.90;;;2.40;;
27666;SDS011;15074;50.940;5.282;2023-11-19T13:40:10;11.15;;;2.63;;
27666;SDS011;15074;50.940;5.282;2023-11-19T13:42:40;9.07;;;2.33;;
27666;SDS011;15074;50.940;5.282;2023-11-19T13:45:14;19.67;;;3.55;;
27666;SDS011;15074;50.940;5.282;2023-11-19T13:47:43;13.32;;;3.38;;
27666;SDS011;15074;50.940;5.282;2023-11-19T13:50:11;9.73;;;2.47;;
27666;SDS011;15074;50.940;5.282;2023-11-19T13:52:38;15.82;;;3.15;;
27666;SDS011;15074;50.940;5.282;2023-11-19T13:55:05;13.80;;;2.60;;
27666;SDS011;15074;50.940;5.282;2023-11-19T13:57:32;8.80;;;2.50;;
27666;SDS011;15074;50.940;5.282;2023-11-19T13:59:57;10.32;;;2.60;;
27666;SDS011;15074;50.940;5.282;2023-11-19T14:02:23;10.40;;;3.03;;
27666;SDS011;15074;50.940;5.282;2023-11-19T14:04:48;11.70;;;2.33;;
27666;SDS011;15074;50.940;5.282;2023-11-19T14:07:14;12.90;;;2.85;;
27666;SDS011;15074;50.940;5.282;2023-11-19T14:09:41;13.13;;;2.70;;
27666;SDS011;15074;50.940;5.282;2023-11-19T14:12:07;12.20;;;2.40;;
27666;SDS011;15074;50.940;5.282;2023-11-19T14:14:34;7.57;;;3.30;;
27666;SDS011;15074;50.940;5.282;2023-11-19T14:17:01;7.07;;;2.20;;
27666;SDS011;15074;50.940;5.282;2023-11-19T14:19:28;15.57;;;2.40;;
27666;SDS011;15074;50.940;5.282;2023-11-19T14:21:54;12.80;;;2.00;;
27666;SDS011;15074;50.940;5.282;2023-11-19T14:24:19;9.85;;;3.63;;
27666;SDS011;15074;50.940;5.282;2023-11-19T14:26:46;12.70;;;2.53;;
27666;SDS011;15074;50.940;5.282;2023-11-19T14:29:12;10.98;;;3.65;;
27666;SDS011;15074;50.940;5.282;2023-11-19T14:31:38;14.85;;;2.45;;
27666;SDS011;15074;50.940;5.282;2023-11-19T14:34:04;16.52;;;3.25;;
27666;SDS011;15074;50.940;5.282;2023-11-19T14:36:30;13.48;;;2.15;;
27666;SDS011;15074;50.940;5.282;2023-11-19T14:38:56;10.43;;;2.40;;
27666;SDS011;15074;50.940;5.282;2023-11-19T14:41:23;14.02;;;3.38;;
27666;SDS011;15074;50.940;5.282;2023-11-19T14:43:49;9.90;;;2.95;;
27666;SDS011;15074;50.940;5.282;2023-11-19T14:46:15;10.10;;;2.75;;
27666;SDS011;15074;50.940;5.282;2023-11-19T14:48:41;8.68;;;2.80;;
27666;SDS011;15074;50.940;5.282;2023-11-19T14:51:06;15.48;;;3.20;;
27666;SDS011;15074;50.940;5.282;2023-11-19T14:53:33;20.90;;;3.47;;
27666;SDS011;15074;50.940;5.282;2023-11-19T14:55:59;9.27;;;2.58;;
27666;SDS011;15074;50.940;5.282;2023-11-19T14:58:25;8.98;;;3.42;;
27666;SDS011;15074;50.940;5.282;2023-11-19T15:00:51;9.68;;;2.38;;
27666;SDS011;15074;50.940;5.282;2023-11-19T15:03:17;14.55;;;2.78;;
27666;SDS011;15074;50.940;5.282;2023-11-19T15:05:47;14.18;;;3.03;;
27666;SDS011;15074;50.940;5.282;2023-11-19T15:08:13;12.05;;;3.65;;